Time;durP1;ratioP1;P1;durP2;ratioP2;P2;SDS_P1;SDS_P2;PMS_P1;PMS_P2;Temp;Humidity;BMP_temperature;BMP_pressure;BME280_temperature;BME280_humidity;BME280_pressure;Samples;Min_cycle;Max_cycle;Signal;HPM_P1;HPM_P2
2021/12/18 00:02:47;;;;;;;1.30;1.08;;;;;;;18.10;45.73;98645.97;10515050;28;20397;-52
2021/12/18 00:08:07;;;;;;;0.98;0.88;;;;;;;18.09;45.69;98649.75;10530313;28;20621;-54
2021/12/18 00:13:26;;;;;;;1.10;1.00;;;;;;;18.07;45.58;98654.59;10529846;28;20052;-51
2021/12/18 00:18:48;;;;;;;1.00;0.90;;;;;;;18.07;45.65;98646.50;10543061;28;20042;-53
2021/12/18 00:24:08;;;;;;;1.05;1.00;;;;;;;18.06;45.60;98650.28;10529513;28;20526;-53
2021/12/18 00:29:28;;;;;;;0.90;0.90;;;;;;;18.05;45.70;98645.97;10529267;28;20040;-53
2021/12/18 00:34:48;;;;;;;0.90;0.90;;;;;;;18.03;45.67;98638.13;10547679;28;20051;-54
2021/12/18 00:40:16;;;;;;;0.95;0.95;;;;;;;18.03;45.55;98637.34;10536906;28;20078;-53
2021/12/18 00:45:35;;;;;;;1.02;0.93;;;;;;;18.02;45.54;98641.13;10536528;28;20048;-54
2021/12/18 00:50:55;;;;;;;1.00;0.90;;;;;;;18.01;45.61;98643.00;10536028;28;20060;-53
2021/12/18 00:56:15;;;;;;;0.90;0.90;;;;;;;18.01;45.60;98644.88;10549958;28;20044;-53
2021/12/18 01:01:35;;;;;;;1.17;1.00;;;;;;;18.00;45.55;98645.97;10536289;28;20056;-53
2021/12/18 01:06:55;;;;;;;1.10;1.00;;;;;;;17.98;45.75;98648.94;10536096;28;20052;-53
2021/12/18 01:12:14;;;;;;;0.88;0.88;;;;;;;17.98;45.58;98644.34;10535648;28;20064;-53
2021/12/18 01:23:13;;;;;;;1.30;1.10;;;;;;;17.96;45.64;98643.00;10535359;28;20063;-53
2021/12/18 01:28:33;;;;;;;1.02;0.93;;;;;;;17.94;45.65;98640.56;10535929;28;20048;-53
2021/12/18 01:33:53;;;;;;;1.10;1.00;;;;;;;17.93;45.51;98630.84;10534929;28;20514;-53
2021/12/18 01:39:13;;;;;;;1.05;0.98;;;;;;;17.92;45.42;98618.47;10535087;28;20112;-53
2021/12/18 01:45:04;;;;;;;0.88;0.88;;;;;;;17.91;45.67;98627.59;10534543;28;20465;-53
2021/12/18 01:56:02;;;;;;;0.80;0.80;;;;;;;17.90;45.55;98639.50;10533909;28;20063;-51
2021/12/18 02:01:22;;;;;;;1.10;0.85;;;;;;;17.88;45.50;98630.88;10534305;28;20784;-53
2021/12/18 02:06:41;;;;;;;1.08;0.98;;;;;;;17.89;45.61;98642.44;10533877;28;20463;-53
2021/12/18 02:12:01;;;;;;;1.00;0.90;;;;;;;17.88;45.51;98633.56;10532761;28;20063;-53
2021/12/18 02:22:59;;;;;;;1.10;0.90;;;;;;;17.87;45.61;98639.22;10532976;28;20056;-53
2021/12/18 02:28:24;;;;;;;1.02;0.95;;;;;;;17.85;45.49;98636.78;10532139;28;20056;-53
2021/12/18 02:33:44;;;;;;;0.80;0.80;;;;;;;17.85;45.82;98644.06;10532540;28;20068;-53
2021/12/18 02:39:24;;;;;;;1.20;1.10;;;;;;;17.84;45.50;98645.97;10546005;28;20614;-53
2021/12/18 02:44:43;;;;;;;1.00;0.90;;;;;;;17.82;45.50;98642.69;10531770;28;20056;-53
2021/12/18 02:50:04;;;;;;;0.88;0.88;;;;;;;17.81;45.61;98643.75;10532139;28;20463;-54
2021/12/18 02:55:23;;;;;;;0.98;0.90;;;;;;;17.80;45.58;98636.75;10530614;28;20055;-53
2021/12/18 03:00:43;;;;;;;1.17;1.10;;;;;;;17.80;45.67;98628.66;10545481;28;20042;-53
2021/12/18 03:23:12;;;;;;;1.33;0.93;;;;;;;17.76;45.42;98630.28;10531276;28;20529;-53
2021/12/18 03:28:32;;;;;;;0.80;0.80;;;;;;;17.75;45.63;98623.25;10530577;28;20062;-53
2021/12/18 03:33:52;;;;;;;0.80;0.80;;;;;;;17.74;45.69;98608.19;10531065;28;20059;-53
2021/12/18 03:39:11;;;;;;;0.90;0.90;;;;;;;17.75;45.58;98609.78;10544194;28;20036;-53
2021/12/18 03:44:30;;;;;;;1.08;0.98;;;;;;;17.73;45.68;98601.97;10543930;28;20044;-53
2021/12/18 03:49:50;;;;;;;0.80;0.80;;;;;;;17.72;45.69;98610.31;10530636;28;20484;-53
2021/12/18 03:55:09;;;;;;;1.45;0.90;;;;;;;17.73;45.37;98603.84;10530338;28;20052;-53
2021/12/18 04:00:29;;;;;;;0.95;0.90;;;;;;;17.70;45.51;98610.59;10530528;28;20048;-54
2021/12/18 04:05:49;;;;;;;1.00;1.00;;;;;;;17.70;45.64;98617.84;10530286;28;20055;-53
2021/12/18 04:11:08;;;;;;;0.90;0.90;;;;;;;17.69;45.64;98622.44;10536776;28;20055;-53
2021/12/18 04:16:28;;;;;;;0.82;0.80;;;;;;;17.69;45.64;98624.34;10551642;28;20044;-53
2021/12/18 04:21:48;;;;;;;0.90;0.90;;;;;;;17.68;45.53;98620.00;10537836;28;20052;-53
2021/12/18 04:27:07;;;;;;;0.80;0.80;;;;;;;17.68;45.77;98620.00;10536805;28;20052;-54
2021/12/18 04:32:26;;;;;;;0.93;0.90;;;;;;;17.66;45.48;98603.28;10536662;28;20052;-51
2021/12/18 04:37:46;;;;;;;1.30;1.00;;;;;;;17.67;45.77;98613.00;10537137;28;20040;-53
2021/12/18 04:43:06;;;;;;;0.80;0.80;;;;;;;17.65;45.60;98615.16;10537018;28;20094;-54
2021/12/18 04:48:25;;;;;;;0.80;0.80;;;;;;;17.64;45.51;98611.69;10536202;28;20056;-53
2021/12/18 04:53:44;;;;;;;1.00;0.80;;;;;;;17.63;45.67;98622.72;10536031;28;20052;-53
2021/12/18 04:59:05;;;;;;;0.90;0.88;;;;;;;17.63;45.62;98630.81;10536286;28;20044;-53
2021/12/18 05:04:25;;;;;;;0.75;0.75;;;;;;;17.62;45.62;98632.69;10535926;28;20725;-53
2021/12/18 05:09:45;;;;;;;0.90;0.90;;;;;;;17.59;45.65;98625.94;10536052;28;20633;-53
2021/12/18 05:15:06;;;;;;;1.10;1.00;;;;;;;17.60;45.59;98632.13;10549126;28;20040;-53
2021/12/18 05:20:26;;;;;;;0.93;0.90;;;;;;;17.59;45.60;98620.53;10535075;28;20403;-53
2021/12/18 05:25:45;;;;;;;0.98;0.90;;;;;;;17.59;45.50;98617.03;10543714;28;20100;-53
2021/12/18 05:31:05;;;;;;;0.90;0.90;;;;;;;17.57;45.65;98621.88;10535185;28;20673;-53
2021/12/18 05:37:02;;;;;;;1.10;1.00;;;;;;;17.57;45.47;98613.81;10534878;28;20443;-53
2021/12/18 05:42:17;;;;;;;0.70;0.70;;;;;;;17.56;45.62;98618.41;10534992;28;20063;-53
2021/12/18 05:47:37;;;;;;;0.90;0.90;;;;;;;17.55;45.56;98619.47;10534421;28;20610;-53
2021/12/18 05:52:59;;;;;;;0.80;0.80;;;;;;;17.54;45.68;98625.94;10534590;28;20059;-53
2021/12/18 05:58:18;;;;;;;1.10;1.00;;;;;;;17.54;45.57;98627.81;10533562;28;20055;-53
2021/12/18 06:03:38;;;;;;;0.93;0.82;;;;;;;17.53;45.61;98627.00;10547158;28;20036;-53
2021/12/18 06:08:58;;;;;;;0.80;0.80;;;;;;;17.52;45.48;98627.25;10533275;28;20064;-53
2021/12/18 06:14:18;;;;;;;0.75;0.73;;;;;;;17.50;45.37;98615.94;10534571;28;20529;-53
2021/12/18 06:19:37;;;;;;;0.80;0.80;;;;;;;17.50;45.58;98618.63;10532522;28;20064;-53
2021/12/18 06:24:57;;;;;;;1.20;0.90;;;;;;;17.49;45.44;98615.13;10532768;28;20071;-52
2021/12/18 06:30:18;;;;;;;0.82;0.80;;;;;;;17.49;45.65;98617.84;10532194;28;20040;-53
2021/12/18 06:35:38;;;;;;;1.10;1.00;;;;;;;17.47;45.57;98625.38;10546178;28;20036;-52
2021/12/18 06:40:58;;;;;;;0.98;0.73;;;;;;;17.47;45.50;98624.56;10532598;28;20059;-53
2021/12/18 06:46:17;;;;;;;0.80;0.73;;;;;;;17.46;45.42;98623.75;10532224;28;20563;-54
2021/12/18 06:51:37;;;;;;;0.90;0.90;;;;;;;17.46;45.57;98628.31;10532066;28;20048;-53
2021/12/18 06:56:56;;;;;;;0.90;0.90;;;;;;;17.45;45.35;98616.75;10545294;28;20047;-53
2021/12/18 07:02:16;;;;;;;1.02;0.93;;;;;;;17.45;45.60;98622.13;10531831;28;20047;-53
2021/12/18 07:07:36;;;;;;;0.85;0.85;;;;;;;17.46;45.48;98614.84;10531555;28;20075;-53
2021/12/18 07:12:55;;;;;;;1.13;1.02;;;;;;;17.46;45.70;98618.34;10536101;28;20475;-53
2021/12/18 07:18:15;;;;;;;0.75;0.75;;;;;;;17.47;45.66;98609.19;10530975;28;20079;-54
2021/12/18 07:23:34;;;;;;;1.02;0.95;;;;;;;17.50;45.49;98621.31;10544167;28;20078;-53
2021/12/18 07:28:54;;;;;;;0.70;0.70;;;;;;;17.53;45.86;98621.59;10531285;28;20066;-53
2021/12/18 07:34:14;;;;;;;1.08;0.80;;;;;;;17.54;45.76;98609.75;10530524;28;20067;-53
2021/12/18 07:39:33;;;;;;;;;;;;;;;17.58;45.57;98610.84;10531283;28;20503;-53
2021/12/18 07:44:52;;;;;;;;;;;;;;;17.61;45.76;98606.00;10551543;28;19920;-54
2021/12/18 07:50:18;;;;;;;0.98;0.98;;;;;;;17.65;45.60;98604.38;10552538;28;19927;-53
2021/12/18 07:55:39;;;;;;;0.77;0.77;;;;;;;17.69;45.74;98597.38;10552593;28;20490;-53
2021/12/18 08:00:58;;;;;;;0.90;0.80;;;;;;;17.74;45.67;98613.56;10552624;28;20051;-53
2021/12/18 08:06:20;;;;;;;0.80;0.80;;;;;;;17.77;45.74;98603.03;10551981;28;20043;-53
2021/12/18 08:11:39;;;;;;;0.80;0.80;;;;;;;17.83;45.62;98611.94;10538502;28;20078;-53
2021/12/18 08:16:59;;;;;;;0.80;0.80;;;;;;;17.88;45.67;98603.09;10537896;28;20476;-52
2021/12/18 08:22:18;;;;;;;0.70;0.70;;;;;;;17.94;45.35;98594.72;10537151;28;20059;-53
2021/12/18 08:27:38;;;;;;;1.10;0.90;;;;;;;17.99;45.67;98593.91;10537013;28;20048;-54
2021/12/18 08:33:00;;;;;;;0.80;0.80;;;;;;;18.05;45.44;98598.22;10550859;28;20097;-53
2021/12/18 08:38:20;;;;;;;0.80;0.70;;;;;;;18.12;45.33;98600.66;10550414;28;20039;-53
2021/12/18 08:43:39;;;;;;;0.75;0.70;;;;;;;18.18;45.28;98592.28;10550894;28;20085;-52
2021/12/18 08:48:59;;;;;;;0.73;0.73;;;;;;;18.24;45.25;98595.78;10536763;28;20056;-53
2021/12/18 08:54:18;;;;;;;0.60;0.60;;;;;;;18.30;45.28;98594.69;10535748;28;20462;-53
2021/12/18 08:59:38;;;;;;;0.70;0.70;;;;;;;18.36;45.10;98593.59;10535076;28;20040;-54
2021/12/18 09:04:58;;;;;;;0.75;0.70;;;;;;;18.45;45.04;98595.78;10536230;28;20121;-54
2021/12/18 09:10:20;;;;;;;0.60;0.60;;;;;;;18.53;44.95;98592.50;10535888;28;20051;-53
2021/12/18 09:15:39;;;;;;;0.70;0.70;;;;;;;18.58;44.82;98592.47;10535621;28;20044;-53
2021/12/18 09:20:59;;;;;;;1.35;1.02;;;;;;;18.66;44.83;98585.72;10533992;28;20052;-53
2021/12/18 09:26:19;;;;;;;0.77;0.77;;;;;;;18.72;44.61;98584.63;10530188;28;20493;-53
2021/12/18 09:31:38;;;;;;;0.70;0.70;;;;;;;18.78;44.64;98586.22;10534941;28;20052;-53
2021/12/18 09:36:58;;;;;;;0.70;0.70;;;;;;;18.87;44.56;98584.59;10535006;28;20047;-53
2021/12/18 09:42:18;;;;;;;0.70;0.70;;;;;;;18.93;44.54;98578.09;10534217;28;20052;-53
2021/12/18 09:47:37;;;;;;;0.70;0.70;;;;;;;18.99;44.36;98573.47;10547967;28;20044;-54
2021/12/18 09:52:58;;;;;;;0.70;0.70;;;;;;;19.04;44.45;98570.75;10534359;28;20075;-54
2021/12/18 09:58:17;;;;;;;0.90;0.90;;;;;;;19.10;44.24;98563.44;10533893;28;20537;-53
2021/12/18 10:03:55;;;;;;;0.80;0.80;;;;;;;19.16;44.07;98556.91;10533157;28;20106;-53
2021/12/18 10:09:17;;;;;;;0.80;0.80;;;;;;;19.24;44.05;98558.22;10532915;28;20093;-54
2021/12/18 10:14:52;;;;;;;0.75;0.75;;;;;;;19.29;44.01;98548.19;10533091;28;20059;-54
2021/12/18 10:20:30;;;;;;;0.77;0.77;;;;;;;19.36;43.79;98537.06;10532956;28;20044;-53
2021/12/18 10:25:50;;;;;;;0.70;0.70;;;;;;;19.44;43.88;98535.66;10542190;28;20507;-53
2021/12/18 10:31:09;;;;;;;0.68;0.68;;;;;;;19.49;43.83;98539.13;10545961;28;20070;-52
2021/12/18 10:36:31;;;;;;;0.82;0.82;;;;;;;19.54;43.82;98531.00;10545698;28;20044;-53
2021/12/18 10:41:50;;;;;;;0.70;0.70;;;;;;;19.61;43.48;98530.66;10545811;28;20045;-54
2021/12/18 10:47:09;;;;;;;0.60;0.60;;;;;;;19.66;43.46;98536.06;10532120;28;20436;-53
2021/12/18 10:52:37;;;;;;;1.00;0.90;;;;;;;19.73;43.44;98527.63;10516805;28;20099;-53
2021/12/18 10:57:56;;;;;;;0.80;0.80;;;;;;;19.77;43.29;98517.88;10531734;28;20051;-54
2021/12/18 11:03:37;;;;;;;0.70;0.70;;;;;;;19.84;43.21;98512.13;10531716;28;20059;-53
2021/12/18 11:09:12;;;;;;;0.77;0.77;;;;;;;19.89;43.16;98503.97;10531475;28;20391;-52
2021/12/18 11:14:34;;;;;;;0.80;0.80;;;;;;;19.93;43.10;98495.00;10531252;28;20048;-53
2021/12/18 11:19:54;;;;;;;0.70;0.70;;;;;;;20.01;43.04;98492.75;10530662;28;20048;-53
2021/12/18 11:25:14;;;;;;;0.70;0.70;;;;;;;20.04;43.01;98489.50;10512863;28;20055;-54
2021/12/18 11:30:34;;;;;;;0.63;0.63;;;;;;;20.08;43.03;98479.72;10528363;28;20048;-53
2021/12/18 11:35:53;;;;;;;0.73;0.73;;;;;;;20.13;42.88;98460.69;10527546;28;20048;-51
2021/12/18 11:41:15;;;;;;;0.63;0.63;;;;;;;20.21;42.76;98456.56;10529680;28;20067;-53
2021/12/18 11:46:37;;;;;;;0.70;0.70;;;;;;;20.26;42.64;98464.63;10530002;28;20052;-53
2021/12/18 11:52:03;;;;;;;0.70;0.70;;;;;;;20.30;42.72;98455.63;10530727;28;20052;-52
2021/12/18 11:57:39;;;;;;;0.93;0.90;;;;;;;20.36;42.47;98448.25;10530380;28;20483;-54
2021/12/18 12:03:00;;;;;;;0.63;0.63;;;;;;;20.40;42.44;98443.09;10530370;28;20097;-53
2021/12/18 12:08:22;;;;;;;0.80;0.80;;;;;;;20.45;42.54;98440.31;10530089;28;20047;-54
2021/12/18 12:13:54;;;;;;;0.70;0.70;;;;;;;20.49;42.29;98435.94;10532413;28;20054;-54
2021/12/18 12:19:20;;;;;;;0.77;0.75;;;;;;;20.53;42.42;98434.25;10530033;28;20055;-53
2021/12/18 12:24:58;;;;;;;0.85;0.85;;;;;;;20.57;42.25;98438.00;10529211;28;20055;-54
2021/12/18 12:30:26;;;;;;;0.60;0.60;;;;;;;20.61;42.28;98430.94;10533752;28;20082;-53
2021/12/18 12:36:07;;;;;;;0.70;0.70;;;;;;;20.65;42.15;98431.94;10537367;28;20478;-53
2021/12/18 12:41:27;;;;;;;0.70;0.70;;;;;;;20.68;42.18;98411.59;10537168;28;20056;-53
2021/12/18 12:46:47;;;;;;;1.02;0.80;;;;;;;20.72;42.28;98412.66;10537317;28;20561;-54
2021/12/18 12:52:12;;;;;;;0.80;0.80;;;;;;;20.75;42.13;98406.63;10536895;28;20059;-52
2021/12/18 12:57:32;;;;;;;0.82;0.82;;;;;;;20.78;42.00;98399.81;10550270;28;20044;-51
2021/12/18 13:02:53;;;;;;;0.80;0.80;;;;;;;20.81;42.11;98400.03;10536429;28;20058;-53
2021/12/18 13:08:12;;;;;;;0.70;0.70;;;;;;;20.82;42.00;98395.44;10536223;28;20392;-51
2021/12/18 13:13:34;;;;;;;0.60;0.60;;;;;;;20.84;42.04;98393.25;10539252;28;20113;-53
2021/12/18 13:18:57;;;;;;;0.93;0.90;;;;;;;20.83;41.98;98391.63;10535990;28;20158;-54
2021/12/18 13:24:17;;;;;;;0.80;0.80;;;;;;;20.84;42.04;98388.63;10534886;28;20052;-53
2021/12/18 13:29:37;;;;;;;0.95;0.95;;;;;;;20.84;42.09;98380.50;10535322;28;20735;-53
2021/12/18 13:34:56;;;;;;;0.70;0.70;;;;;;;20.85;42.06;98370.47;10548638;28;20044;-53
2021/12/18 13:40:16;;;;;;;0.80;0.80;;;;;;;20.84;42.05;98366.97;10534770;28;20056;-54
2021/12/18 13:45:50;;;;;;;0.70;0.70;;;;;;;20.85;42.03;98376.69;10548276;28;20044;-54
2021/12/18 13:51:18;;;;;;;0.65;0.65;;;;;;;20.86;41.98;98377.50;10534881;28;20058;-53
2021/12/18 13:56:45;;;;;;;0.73;0.73;;;;;;;20.86;41.99;98375.59;10533720;28;20139;-52
2021/12/18 14:02:05;;;;;;;0.70;0.70;;;;;;;20.86;41.98;98372.09;10534104;28;20302;-53
2021/12/18 14:07:24;;;;;;;0.82;0.82;;;;;;;20.84;41.92;98360.75;10534308;28;20040;-54
2021/12/18 14:12:44;;;;;;;0.88;0.88;;;;;;;20.83;42.06;98351.00;10533016;28;20048;-53
2021/12/18 14:18:33;;;;;;;0.70;0.70;;;;;;;20.84;41.99;98352.63;10532621;28;20040;-54
2021/12/18 14:23:58;;;;;;;0.90;0.90;;;;;;;20.83;42.05;98343.66;10532923;28;20052;-54
2021/12/18 14:29:17;;;;;;;0.80;0.80;;;;;;;20.83;42.13;98342.88;10532793;28;20181;-53
2021/12/18 14:34:39;;;;;;;0.90;0.90;;;;;;;20.81;42.05;98336.94;10546541;28;20047;-54
2021/12/18 14:39:58;;;;;;;0.88;0.85;;;;;;;20.81;42.13;98343.16;10532698;28;20054;-54
2021/12/18 14:45:21;;;;;;;0.70;0.70;;;;;;;20.80;42.05;98346.97;10546209;28;20040;-53
2021/12/18 14:50:43;;;;;;;0.77;0.77;;;;;;;20.80;42.12;98343.47;10532052;28;20048;-52
2021/12/18 14:56:03;;;;;;;0.82;0.82;;;;;;;20.76;42.05;98337.84;10545846;28;20487;-53
2021/12/18 15:01:25;;;;;;;0.80;0.80;;;;;;;20.75;42.21;98336.22;10531665;28;20487;-50
2021/12/18 15:06:45;;;;;;;0.90;0.85;;;;;;;20.75;42.14;98330.81;10531115;28;20048;-52
2021/12/18 15:12:05;;;;;;;0.80;0.80;;;;;;;20.72;42.11;98326.78;10531562;28;20070;-54
2021/12/18 15:17:25;;;;;;;0.73;0.73;;;;;;;20.72;42.18;98328.69;10531420;28;20055;-54
2021/12/18 15:22:44;;;;;;;0.85;0.85;;;;;;;20.72;42.20;98320.56;10531097;28;20054;-53
2021/12/18 15:28:04;;;;;;;0.80;0.80;;;;;;;20.71;42.21;98325.16;10530462;28;20097;-53
2021/12/18 15:33:24;;;;;;;0.80;0.80;;;;;;;20.69;42.17;98321.94;10530716;28;20052;-52
2021/12/18 15:38:44;;;;;;;0.77;0.77;;;;;;;20.67;42.20;98329.56;10530722;28;20048;-53
2021/12/18 15:44:04;;;;;;;0.80;0.80;;;;;;;20.66;42.18;98332.56;10530730;28;20075;-53
2021/12/18 15:49:24;;;;;;;0.77;0.77;;;;;;;20.65;42.22;98333.66;10530836;28;20051;-53
2021/12/18 15:54:43;;;;;;;1.58;0.68;;;;;;;20.63;42.25;98325.84;10529869;28;20059;-50
2021/12/18 16:00:04;;;;;;;0.80;0.80;;;;;;;20.62;42.41;98318.00;10529823;28;20052;-54
2021/12/18 16:05:33;;;;;;;;;;;;;;;20.59;42.27;98322.09;10537218;28;20101;-53
2021/12/18 16:10:52;;;;;;;0.80;0.80;;;;;;;20.58;42.29;98323.19;10538543;28;20383;-53
2021/12/18 16:16:12;;;;;;;0.80;0.80;;;;;;;20.57;42.37;98315.34;10537523;28;20101;-53
2021/12/18 16:21:32;;;;;;;0.70;0.70;;;;;;;20.55;42.28;98305.59;10538110;28;20498;-53
2021/12/18 16:26:51;;;;;;;0.80;0.80;;;;;;;20.53;42.42;98299.69;10537612;28;20052;-51
2021/12/18 16:32:11;;;;;;;0.93;0.90;;;;;;;20.54;42.45;98292.38;10551009;28;20048;-53
2021/12/18 16:37:32;;;;;;;0.80;0.80;;;;;;;20.51;42.45;98292.97;10536350;28;20502;-53
2021/12/18 16:42:51;;;;;;;0.63;0.63;;;;;;;20.51;42.52;98293.75;10537279;28;20051;-53
2021/12/18 16:48:17;;;;;;;0.90;0.90;;;;;;;20.48;42.56;98275.41;10536605;28;20062;-53
2021/12/18 16:53:37;;;;;;;0.88;0.88;;;;;;;20.48;42.57;98280.00;10536181;28;20399;-53
2021/12/18 16:58:57;;;;;;;0.63;0.63;;;;;;;20.45;42.60;98273.28;10535758;28;20052;-53
2021/12/18 17:04:19;;;;;;;0.80;0.80;;;;;;;20.43;42.52;98259.25;10549663;28;20038;-53
2021/12/18 17:09:39;;;;;;;0.73;0.73;;;;;;;20.41;42.54;98247.13;10549423;28;20048;-52
2021/12/18 17:14:58;;;;;;;0.75;0.75;;;;;;;20.39;42.57;98252.00;10548783;28;20051;-53
2021/12/18 17:20:17;;;;;;;1.10;1.00;;;;;;;20.37;42.68;98249.59;10549372;28;20598;-53
2021/12/18 17:25:37;;;;;;;0.80;0.80;;;;;;;20.37;42.65;98236.06;10535273;28;20494;-54
2021/12/18 17:30:58;;;;;;;0.90;0.90;;;;;;;20.36;42.52;98231.72;10534799;28;20084;-53
2021/12/18 17:36:19;;;;;;;0.68;0.68;;;;;;;20.34;42.67;98232.03;10535160;28;20129;-53
2021/12/18 17:41:39;;;;;;;0.77;0.77;;;;;;;20.32;42.59;98228.81;10534594;28;20074;-53
2021/12/18 17:46:59;;;;;;;0.90;0.80;;;;;;;20.28;42.66;98225.09;10534559;28;20048;-53
2021/12/18 17:52:18;;;;;;;0.80;0.80;;;;;;;20.27;42.70;98212.66;10534524;28;20052;-53
2021/12/18 17:57:38;;;;;;;0.70;0.70;;;;;;;20.26;42.68;98227.28;10533796;28;20070;-52
2021/12/18 18:02:58;;;;;;;0.80;0.80;;;;;;;20.24;42.88;98210.53;10533974;28;20438;-52
2021/12/18 18:08:19;;;;;;;0.80;0.80;;;;;;;20.22;42.86;98204.63;10534051;28;20044;-52
2021/12/18 18:13:39;;;;;;;1.20;0.90;;;;;;;20.21;42.75;98194.09;10533455;28;20059;-54
2021/12/18 18:18:58;;;;;;;0.80;0.80;;;;;;;20.20;42.77;98189.78;10533311;28;20067;-53
2021/12/18 18:24:18;;;;;;;0.60;0.60;;;;;;;20.16;42.80;98181.44;10533032;28;20193;-54
2021/12/18 18:29:37;;;;;;;0.75;0.75;;;;;;;20.17;42.81;98185.78;10532158;28;20473;-54
2021/12/18 18:34:57;;;;;;;0.88;0.88;;;;;;;20.14;42.80;98191.75;10546027;28;20048;-53
2021/12/18 18:40:17;;;;;;;0.85;0.85;;;;;;;20.13;43.11;98198.25;10545889;28;20040;-53
2021/12/18 18:45:39;;;;;;;0.80;0.80;;;;;;;20.11;42.87;98187.75;10545735;28;20127;-53
2021/12/18 18:50:59;;;;;;;0.75;0.75;;;;;;;20.11;42.76;98178.81;10532422;28;20051;-53
2021/12/18 18:56:20;;;;;;;0.85;0.85;;;;;;;20.09;42.96;98173.72;10545321;28;20071;-53
2021/12/18 19:01:40;;;;;;;1.02;0.80;;;;;;;20.08;42.97;98177.50;10545328;28;20092;-53
2021/12/18 19:06:59;;;;;;;0.90;0.90;;;;;;;20.08;42.84;98179.41;10531722;28;20044;-54
2021/12/18 19:12:18;;;;;;;0.88;0.88;;;;;;;20.08;42.82;98169.38;10530712;28;20056;-53
2021/12/18 19:17:40;;;;;;;1.35;0.80;;;;;;;20.10;43.02;98158.28;10531056;28;20052;-53
2021/12/18 19:22:59;;;;;;;0.70;0.70;;;;;;;20.11;42.87;98155.28;10531442;28;20056;-54
2021/12/18 19:28:19;;;;;;;0.88;0.88;;;;;;;20.14;42.84;98157.38;10530623;28;20066;-53
2021/12/18 19:33:38;;;;;;;0.70;0.70;;;;;;;20.15;42.82;98141.97;10544376;28;20063;-53
2021/12/18 19:38:58;;;;;;;0.75;0.73;;;;;;;20.14;42.80;98135.75;10537011;28;20047;-53
2021/12/18 19:44:17;;;;;;;0.80;0.80;;;;;;;20.16;42.72;98135.44;10558365;28;20044;-53
2021/12/18 19:49:37;;;;;;;0.70;0.70;;;;;;;20.18;42.68;98125.13;10544806;28;20044;-52
2021/12/18 19:54:57;;;;;;;1.10;1.00;;;;;;;20.21;42.78;98123.72;10544765;28;20608;-53
2021/12/18 20:00:17;;;;;;;0.82;0.82;;;;;;;20.23;42.62;98124.25;10544508;28;20657;-53
2021/12/18 20:05:38;;;;;;;0.77;0.77;;;;;;;20.27;42.58;98130.69;10543832;28;20063;-53
2021/12/18 20:10:57;;;;;;;1.00;0.90;;;;;;;20.28;42.55;98118.75;10544376;28;20054;-53
2021/12/18 20:16:18;;;;;;;0.80;0.80;;;;;;;20.31;42.56;98104.63;10543979;28;20059;-53
2021/12/18 20:21:38;;;;;;;0.73;0.73;;;;;;;20.35;42.47;98101.03;10543357;28;20055;-53
2021/12/18 20:27:00;;;;;;;0.77;0.77;;;;;;;20.38;42.29;98088.78;10543298;28;20105;-53
2021/12/18 20:32:20;;;;;;;0.75;0.75;;;;;;;20.40;42.30;98075.75;10543831;28;20553;-53
2021/12/18 20:37:43;;;;;;;0.60;0.60;;;;;;;20.44;42.22;98070.56;10543721;28;20601;-53
2021/12/18 20:43:02;;;;;;;0.95;0.70;;;;;;;20.47;42.23;98057.25;10557261;28;20035;-53
2021/12/18 20:48:22;;;;;;;0.73;0.73;;;;;;;20.51;42.20;98060.16;10556574;28;20040;-54
2021/12/18 20:53:42;;;;;;;0.70;0.70;;;;;;;20.53;42.19;98052.53;10549941;28;20044;-54
2021/12/18 20:59:03;;;;;;;0.88;0.88;;;;;;;20.56;42.08;98054.63;10536355;28;20052;-53
2021/12/18 21:04:22;;;;;;;0.82;0.80;;;;;;;20.59;42.07;98040.53;10536666;28;20071;-53
2021/12/18 21:09:42;;;;;;;0.65;0.65;;;;;;;20.63;42.19;98025.28;10536005;28;20058;-53
2021/12/18 21:15:03;;;;;;;0.70;0.70;;;;;;;20.66;42.05;98027.41;10536301;28;20054;-52
2021/12/18 21:20:23;;;;;;;0.80;0.70;;;;;;;20.69;42.00;98007.81;10535805;28;20048;-54
2021/12/18 21:25:42;;;;;;;0.80;0.80;;;;;;;20.74;41.87;97998.81;10535463;28;20125;-52
2021/12/18 21:31:03;;;;;;;0.95;0.85;;;;;;;20.77;41.97;97992.78;10549166;28;20056;-53
2021/12/18 21:36:35;;;;;;;0.77;0.60;;;;;;;20.82;41.87;97986.47;10535343;28;20052;-54
2021/12/18 21:41:55;;;;;;;0.70;0.70;;;;;;;20.83;41.76;97985.34;10535217;28;20052;-53
2021/12/18 21:47:15;;;;;;;0.60;0.60;;;;;;;20.85;41.74;97975.00;10534946;28;20054;-54
2021/12/18 21:52:35;;;;;;;0.60;0.60;;;;;;;20.88;41.63;97988.75;10547990;28;20047;-53
2021/12/18 21:57:54;;;;;;;0.70;0.70;;;;;;;20.90;41.56;97986.53;10533600;28;20048;-54
2021/12/18 22:03:14;;;;;;;0.63;0.63;;;;;;;20.91;41.62;97992.75;10533440;28;20056;-53
2021/12/18 22:08:34;;;;;;;0.50;0.50;;;;;;;20.92;41.57;97991.66;10547486;28;20044;-52
2021/12/18 22:13:54;;;;;;;0.63;0.63;;;;;;;20.91;41.65;97985.44;10533719;28;20047;-53
2021/12/18 22:19:14;;;;;;;0.60;0.60;;;;;;;20.92;41.59;97981.63;10546893;28;20048;-53
2021/12/18 22:24:33;;;;;;;0.80;0.80;;;;;;;20.93;41.64;97977.81;10545826;28;20059;-52
2021/12/18 22:29:53;;;;;;;0.60;0.60;;;;;;;20.93;41.55;97966.97;10545536;28;20052;-53
2021/12/18 22:35:13;;;;;;;0.50;0.50;;;;;;;20.94;41.51;97967.78;10546149;28;20089;-53
2021/12/18 22:40:33;;;;;;;0.60;0.60;;;;;;;20.93;41.59;97968.88;10546228;28;20046;-52
2021/12/18 22:45:54;;;;;;;0.70;0.70;;;;;;;20.93;41.51;97963.44;10532174;28;20593;-53
2021/12/18 22:51:14;;;;;;;0.70;0.70;;;;;;;20.93;41.57;97961.56;10531915;28;20056;-53
2021/12/18 22:56:34;;;;;;;0.82;0.82;;;;;;;20.94;41.54;97959.66;10531461;28;20040;-53
2021/12/18 23:01:54;;;;;;;0.60;0.60;;;;;;;20.93;41.49;97930.94;10531450;28;20044;-53
2021/12/18 23:07:13;;;;;;;0.70;0.70;;;;;;;20.92;41.58;97929.34;10531790;28;20048;-53
2021/12/18 23:12:35;;;;;;;0.60;0.60;;;;;;;20.92;41.59;97923.94;10536993;28;20043;-54
2021/12/18 23:23:19;;;;;;;3.72;0.80;;;;;;;20.90;41.59;97899.88;10531188;28;20052;-53
2021/12/18 23:28:38;;;;;;;0.60;0.60;;;;;;;20.88;41.59;97885.81;10532375;28;20101;-52
2021/12/18 23:33:58;;;;;;;0.63;0.63;;;;;;;20.87;41.60;97884.22;10530715;28;20048;-53
2021/12/18 23:39:18;;;;;;;0.70;0.60;;;;;;;20.87;41.60;97878.00;10544245;28;20048;-54
2021/12/18 23:50:17;;;;;;;0.60;0.60;;;;;;;20.86;41.62;97873.72;10530351;28;20048;-52
2021/12/18 23:55:36;;;;;;;0.60;0.60;;;;;;;20.84;41.67;97856.97;10544060;28;20040;-54
